Time;durP1;ratioP1;P1;durP2;ratioP2;P2;SDS_P1;SDS_P2;PMS_P1;PMS_P2;Temp;Humidity;BMP_temperature;BMP_pressure;BME280_temperature;BME280_humidity;BME280_pressure;Samples;Min_cycle;Max_cycle;Signal;HPM_P1;HPM_P2
2023/01/11 00:02:09;;;;;;;20.83;12.30;;;5.50;99.90;;;;;;5050459;28;20048;-78
2023/01/11 00:04:35;;;;;;;19.63;12.63;;;5.50;99.90;;;;;;5065820;28;20044;-77
2023/01/11 00:07:00;;;;;;;17.08;11.82;;;5.50;99.90;;;;;;5049954;28;20024;-77
2023/01/11 00:09:26;;;;;;;19.33;12.57;;;5.40;99.90;;;;;;5051413;28;20025;-77
2023/01/11 00:11:53;;;;;;;19.70;12.00;;;5.40;99.90;;;;;;5050111;28;20507;-78
2023/01/11 00:14:19;;;;;;;18.67;11.80;;;5.40;99.90;;;;;;5049882;28;20025;-78
2023/01/11 00:16:44;;;;;;;20.00;12.50;;;5.40;99.90;;;;;;5050244;28;20035;-78
2023/01/11 00:19:10;;;;;;;19.88;11.88;;;5.40;99.90;;;;;;5050150;28;20036;-77
2023/01/11 00:21:36;;;;;;;17.02;11.30;;;5.40;99.90;;;;;;5050049;28;20486;-78
2023/01/11 00:24:01;;;;;;;16.30;10.90;;;5.40;99.90;;;;;;5050148;28;20025;-78
2023/01/11 00:26:27;;;;;;;16.33;10.55;;;5.30;99.90;;;;;;5049566;28;20491;-78
2023/01/11 00:28:53;;;;;;;19.75;11.98;;;5.40;99.90;;;;;;5050274;28;20052;-78
2023/01/11 00:31:18;;;;;;;17.33;10.70;;;5.40;99.90;;;;;;5050040;28;20025;-78
2023/01/11 00:33:44;;;;;;;16.67;10.90;;;5.30;99.90;;;;;;5065899;28;20025;-78
2023/01/11 00:36:10;;;;;;;18.02;11.02;;;5.50;99.90;;;;;;5046284;28;20043;-78
2023/01/11 00:38:52;;;;;;;16.73;11.05;;;5.50;99.90;;;;;;5050134;28;20033;-78
2023/01/11 00:49:34;;;;;;;15.32;10.05;;;5.40;99.90;;;;;;5036899;28;20040;-78
2023/01/11 00:52:00;;;;;;;15.05;9.93;;;5.40;99.90;;;;;;5050032;28;20517;-77
2023/01/11 00:54:26;;;;;;;15.48;9.95;;;5.30;99.90;;;;;;5050019;28;20036;-78
2023/01/11 00:56:52;;;;;;;17.52;9.98;;;5.30;99.90;;;;;;5050063;28;20025;-78
2023/01/11 00:59:18;;;;;;;17.50;11.23;;;5.20;99.90;;;;;;5044819;28;20112;-78
2023/01/11 01:01:43;;;;;;;20.77;11.52;;;5.20;99.90;;;;;;5041452;28;20562;-78
2023/01/11 01:04:09;;;;;;;18.95;10.70;;;5.10;99.90;;;;;;5051241;28;20114;-78
2023/01/11 01:06:35;;;;;;;21.23;13.45;;;5.10;99.90;;;;;;5052490;28;20029;-77
2023/01/11 01:09:01;;;;;;;23.27;12.93;;;5.10;99.90;;;;;;5053184;28;20017;-78
2023/01/11 01:11:26;;;;;;;24.08;13.05;;;5.20;99.90;;;;;;5053382;28;20021;-78
2023/01/11 01:16:36;;;;;;;25.98;13.80;;;5.10;99.90;;;;;;5053579;28;20079;-78
2023/01/11 01:19:02;;;;;;;27.63;15.13;;;5.00;99.90;;;;;;5053305;28;20029;-78
2023/01/11 01:21:28;;;;;;;28.42;14.57;;;5.00;99.90;;;;;;5053095;28;20029;-78
2023/01/11 01:23:54;;;;;;;26.45;14.75;;;5.00;99.90;;;;;;5053479;28;20078;-78
2023/01/11 01:26:21;;;;;;;28.45;15.10;;;5.00;99.90;;;;;;5048583;28;20495;-78
2023/01/11 01:28:46;;;;;;;26.85;14.30;;;5.00;99.90;;;;;;5053342;28;20100;-78
2023/01/11 01:31:12;;;;;;;26.20;13.55;;;5.00;99.90;;;;;;5052380;28;20096;-78
2023/01/11 01:33:38;;;;;;;24.23;13.85;;;4.90;99.90;;;;;;5052866;28;20029;-78
2023/01/11 01:36:05;;;;;;;24.85;14.13;;;4.90;99.90;;;;;;5068058;28;20028;-78
2023/01/11 01:38:30;;;;;;;25.30;13.55;;;4.80;99.90;;;;;;5053171;28;20024;-78
2023/01/11 01:40:56;;;;;;;21.67;12.38;;;4.80;99.90;;;;;;5052649;28;20091;-78
2023/01/11 01:43:42;;;;;;;23.15;12.82;;;4.80;99.90;;;;;;5052649;28;20128;-77
2023/01/11 01:46:08;;;;;;;23.00;12.95;;;4.80;99.90;;;;;;5052936;28;20107;-78
2023/01/11 01:48:37;;;;;;;24.25;13.60;;;4.70;99.90;;;;;;5052631;28;20479;-78
2023/01/11 01:51:06;;;;;;;21.17;12.18;;;4.70;99.90;;;;;;5050960;28;20112;-78
2023/01/11 01:53:41;;;;;;;20.67;11.90;;;4.70;99.90;;;;;;5052529;28;20036;-77
2023/01/11 01:56:43;;;;;;;19.35;11.75;;;4.60;99.90;;;;;;5052232;28;20025;-78
2023/01/11 01:59:13;;;;;;;17.70;11.05;;;4.70;99.90;;;;;;4990694;28;20042;-78
2023/01/11 02:01:48;;;;;;;20.20;11.50;;;4.70;99.90;;;;;;4990920;28;20037;-78
2023/01/11 02:04:47;;;;;;;21.80;11.75;;;4.60;99.90;;;;;;4990669;28;20584;-77
2023/01/11 02:07:25;;;;;;;19.40;10.73;;;4.70;99.90;;;;;;4990623;28;20026;-78
2023/01/11 02:10:14;;;;;;;17.88;11.02;;;4.60;99.90;;;;;;4990840;28;20069;-78
2023/01/11 02:12:50;;;;;;;17.02;10.82;;;4.50;99.90;;;;;;4990469;28;20034;-78
2023/01/11 02:15:18;;;;;;;17.45;10.00;;;4.50;99.90;;;;;;4990510;28;20042;-78
2023/01/11 02:17:44;;;;;;;15.82;9.57;;;4.50;99.90;;;;;;4989638;28;20038;-77
2023/01/11 02:20:21;;;;;;;15.32;9.43;;;4.40;99.90;;;;;;4973647;28;20118;-77
2023/01/11 02:23:13;;;;;;;16.83;9.77;;;4.50;99.90;;;;;;4990554;28;20193;-78
2023/01/11 02:25:47;;;;;;;14.80;9.02;;;4.50;99.90;;;;;;4978728;28;20102;-78
2023/01/11 02:28:20;;;;;;;15.90;9.10;;;4.50;99.90;;;;;;4990257;28;20076;-78
2023/01/11 02:31:18;;;;;;;13.07;8.35;;;4.40;99.90;;;;;;4989760;28;20090;-78
2023/01/11 02:34:16;;;;;;;14.13;8.65;;;4.50;99.90;;;;;;4994940;28;20057;-77
2023/01/11 02:37:00;;;;;;;13.20;8.15;;;4.50;99.90;;;;;;5051484;28;20048;-78
2023/01/11 02:40:00;;;;;;;11.55;7.80;;;4.50;99.90;;;;;;5051945;28;20104;-78
2023/01/11 02:46:04;;;;;;;10.98;7.30;;;4.40;99.90;;;;;;4990250;28;20089;-78
2023/01/11 02:48:40;;;;;;;9.90;6.55;;;4.30;99.90;;;;;;4998144;28;20018;-77
2023/01/11 02:51:13;;;;;;;10.80;7.05;;;4.40;99.90;;;;;;4976157;28;20117;-78
2023/01/11 02:53:52;;;;;;;12.85;7.32;;;4.30;99.90;;;;;;4973770;28;20077;-78
2023/01/11 02:56:22;;;;;;;10.57;7.20;;;4.30;99.90;;;;;;4976754;28;20036;-78
2023/01/11 02:58:50;;;;;;;10.70;7.10;;;4.30;99.90;;;;;;4989812;28;20038;-78
2023/01/11 03:01:18;;;;;;;11.90;7.10;;;4.20;99.90;;;;;;4989688;28;20026;-78
2023/01/11 03:03:43;;;;;;;12.40;7.35;;;4.20;99.90;;;;;;4989811;28;20046;-78
2023/01/11 03:06:10;;;;;;;12.50;7.50;;;4.20;99.90;;;;;;4989686;28;20295;-78
2023/01/11 03:08:56;;;;;;;12.73;7.53;;;4.20;99.90;;;;;;4989221;28;20026;-78
2023/01/11 03:14:33;;;;;;;14.10;7.75;;;4.10;99.90;;;;;;4987343;28;20565;-77
2023/01/11 03:17:11;;;;;;;13.10;7.10;;;4.20;99.90;;;;;;4977010;28;20101;-78
2023/01/11 03:19:51;;;;;;;12.20;7.18;;;4.10;99.90;;;;;;5039650;28;20025;-78
2023/01/11 03:22:25;;;;;;;13.00;7.57;;;4.20;99.90;;;;;;5049690;28;20028;-78
2023/01/11 03:25:05;;;;;;;12.75;7.47;;;4.20;99.90;;;;;;5066241;28;20028;-77
2023/01/11 03:27:48;;;;;;;13.18;7.35;;;4.20;99.90;;;;;;5050117;28;20031;-78
2023/01/11 03:30:40;;;;;;;13.73;7.63;;;4.30;99.90;;;;;;5050755;28;20073;-78
2023/01/11 03:33:12;;;;;;;13.20;8.20;;;4.20;99.90;;;;;;5051010;28;20028;-78
2023/01/11 03:35:52;;;;;;;13.60;8.13;;;4.10;99.90;;;;;;5050606;28;20021;-78
2023/01/11 03:38:26;;;;;;;15.75;7.38;;;4.20;99.90;;;;;;5066159;28;20048;-78
2023/01/11 03:41:04;;;;;;;14.23;7.97;;;4.10;99.90;;;;;;5050668;28;20017;-78
2023/01/11 03:43:33;;;;;;;13.38;7.90;;;4.10;99.90;;;;;;5038159;28;20025;-78
2023/01/11 03:46:05;;;;;;;13.57;8.27;;;4.10;99.90;;;;;;5050458;28;20017;-78
2023/01/11 03:48:55;;;;;;;13.02;8.35;;;4.10;99.90;;;;;;5050662;28;20095;-79
2023/01/11 03:51:27;;;;;;;13.68;8.10;;;4.00;99.90;;;;;;5050458;28;20021;-78
2023/01/11 03:53:57;;;;;;;17.48;9.57;;;4.00;99.90;;;;;;5050410;28;20021;-78
2023/01/11 03:56:31;;;;;;;12.60;8.25;;;4.10;99.90;;;;;;5037500;28;20017;-78
2023/01/11 03:58:57;;;;;;;13.30;7.78;;;4.00;99.90;;;;;;5050099;28;20139;-78
2023/01/11 04:01:25;;;;;;;11.93;7.22;;;4.00;99.90;;;;;;5049075;28;20044;-78
2023/01/11 04:03:50;;;;;;;11.85;7.53;;;3.90;99.90;;;;;;5050708;28;20087;-79
2023/01/11 04:06:18;;;;;;;15.25;8.13;;;4.00;99.90;;;;;;5050308;28;20017;-79
2023/01/11 04:08:43;;;;;;;10.73;7.30;;;4.00;99.90;;;;;;5065468;28;20451;-78
2023/01/11 04:11:09;;;;;;;13.90;7.97;;;4.00;99.90;;;;;;5050337;28;20086;-77
2023/01/11 04:13:35;;;;;;;12.20;7.85;;;4.00;99.90;;;;;;5050698;28;20029;-78
2023/01/11 04:16:00;;;;;;;13.75;8.02;;;3.90;99.90;;;;;;5045986;28;20022;-78
2023/01/11 04:18:26;;;;;;;12.95;7.95;;;4.00;99.90;;;;;;5046071;28;20090;-78
2023/01/11 04:20:52;;;;;;;12.20;7.47;;;3.90;99.90;;;;;;5050642;28;20033;-78
2023/01/11 04:23:18;;;;;;;11.25;7.10;;;4.00;99.90;;;;;;5049382;28;20415;-78
2023/01/11 04:25:43;;;;;;;9.55;7.18;;;4.00;99.90;;;;;;5050349;28;20017;-78
2023/01/11 04:28:09;;;;;;;12.07;7.22;;;4.00;99.90;;;;;;5050485;28;20025;-77
2023/01/11 04:30:36;;;;;;;11.82;6.90;;;4.00;99.90;;;;;;5048591;28;20041;-77
2023/01/11 04:33:02;;;;;;;12.55;8.07;;;4.00;99.90;;;;;;5050200;28;20029;-78
2023/01/11 04:35:27;;;;;;;11.80;7.30;;;4.00;99.90;;;;;;5050806;28;20490;-78
2023/01/11 04:37:54;;;;;;;10.48;7.32;;;4.00;99.90;;;;;;5065730;28;20029;-77
2023/01/11 04:40:20;;;;;;;12.38;7.82;;;4.00;99.90;;;;;;5068734;28;20024;-77
2023/01/11 04:42:46;;;;;;;12.70;7.55;;;4.00;99.90;;;;;;5054072;28;20498;-77
2023/01/11 04:45:12;;;;;;;11.05;7.22;;;4.10;99.90;;;;;;5053847;28;20029;-77
2023/01/11 04:47:37;;;;;;;12.35;7.47;;;4.10;99.90;;;;;;5051958;28;20528;-78
2023/01/11 04:50:03;;;;;;;11.05;6.65;;;4.10;99.90;;;;;;5054206;28;20178;-78
2023/01/11 04:52:29;;;;;;;10.18;6.75;;;4.20;99.90;;;;;;5053962;28;20055;-77
2023/01/11 04:54:55;;;;;;;9.02;6.53;;;4.30;99.90;;;;;;5054068;28;20561;-77
2023/01/11 04:57:20;;;;;;;11.07;6.65;;;4.40;99.90;;;;;;5053596;28;20395;-78
2023/01/11 04:59:47;;;;;;;10.57;7.38;;;4.30;99.90;;;;;;5053148;28;20436;-78
2023/01/11 05:02:14;;;;;;;10.95;7.00;;;4.30;99.90;;;;;;5053569;28;20025;-78
2023/01/11 05:04:40;;;;;;;8.63;6.35;;;4.30;99.90;;;;;;5053762;28;20024;-78
2023/01/11 05:07:07;;;;;;;7.72;6.00;;;4.20;99.90;;;;;;5053489;28;20021;-78
2023/01/11 05:09:33;;;;;;;11.45;6.70;;;4.10;99.90;;;;;;5068684;28;20081;-78
2023/01/11 05:11:59;;;;;;;9.32;6.15;;;4.20;99.90;;;;;;5053260;28;20107;-78
2023/01/11 05:14:24;;;;;;;9.98;5.75;;;4.10;99.90;;;;;;5053319;28;20103;-78
2023/01/11 05:16:50;;;;;;;8.02;5.53;;;4.00;99.90;;;;;;5053391;28;20032;-78
2023/01/11 05:19:16;;;;;;;9.35;5.70;;;4.10;99.90;;;;;;5053158;28;20044;-77
2023/01/11 05:21:42;;;;;;;8.75;5.72;;;4.00;99.90;;;;;;5052948;28;20542;-77
2023/01/11 05:24:13;;;;;;;9.15;5.65;;;4.00;99.90;;;;;;5053328;28;20550;-78
2023/01/11 05:26:41;;;;;;;8.70;5.82;;;3.90;99.90;;;;;;5053305;28;20020;-78
2023/01/11 05:29:10;;;;;;;8.38;5.65;;;3.90;99.90;;;;;;5053070;28;20041;-78
2023/01/11 05:31:37;;;;;;;7.25;4.93;;;3.90;99.90;;;;;;5048217;28;20128;-78
2023/01/11 05:34:05;;;;;;;9.32;6.22;;;4.10;99.90;;;;;;5043937;28;20028;-78
2023/01/11 05:36:32;;;;;;;7.85;5.50;;;4.10;99.90;;;;;;5052973;28;20033;-78
2023/01/11 05:38:57;;;;;;;7.50;5.40;;;3.90;99.90;;;;;;5052656;28;20090;-78
2023/01/11 05:41:25;;;;;;;8.63;5.78;;;4.00;99.90;;;;;;5052849;28;20029;-78
2023/01/11 05:46:38;;;;;;;9.45;6.00;;;3.90;99.90;;;;;;5044406;28;20036;-78
2023/01/11 05:49:04;;;;;;;16.52;7.63;;;3.90;99.90;;;;;;5052730;28;20063;-77
2023/01/11 05:51:31;;;;;;;12.25;7.15;;;3.80;99.90;;;;;;5037269;28;20123;-78
2023/01/11 05:53:57;;;;;;;11.57;7.03;;;3.80;99.90;;;;;;5051488;28;20518;-78
2023/01/11 05:56:23;;;;;;;11.98;7.60;;;4.00;99.90;;;;;;5039531;28;20025;-78
2023/01/11 05:58:50;;;;;;;12.88;7.05;;;4.00;99.90;;;;;;5052398;28;20031;-77
2023/01/11 06:01:20;;;;;;;12.65;7.68;;;3.90;99.90;;;;;;5052545;28;20150;-78
2023/01/11 06:03:46;;;;;;;12.90;7.18;;;3.90;99.90;;;;;;5052736;28;20063;-78
2023/01/11 06:06:13;;;;;;;13.88;8.25;;;3.80;99.90;;;;;;5052526;28;20494;-78
2023/01/11 06:08:39;;;;;;;12.82;7.05;;;3.90;99.90;;;;;;5052504;28;20104;-78
2023/01/11 06:11:04;;;;;;;10.73;7.22;;;3.90;99.90;;;;;;5050977;28;20060;-78
2023/01/11 06:13:32;;;;;;;10.27;7.65;;;3.90;99.90;;;;;;5050913;28;20033;-78
2023/01/11 06:16:00;;;;;;;11.57;7.40;;;3.90;99.90;;;;;;5047628;28;20087;-78
2023/01/11 06:18:27;;;;;;;12.13;7.80;;;3.70;99.90;;;;;;5047535;28;20029;-78
2023/01/11 06:20:54;;;;;;;11.82;7.50;;;3.80;99.90;;;;;;5052238;28;20036;-78
2023/01/11 06:23:20;;;;;;;11.23;7.00;;;3.80;99.90;;;;;;5051999;28;20104;-78
2023/01/11 06:25:46;;;;;;;10.75;6.32;;;3.80;99.90;;;;;;5050612;28;20028;-78
2023/01/11 06:28:12;;;;;;;9.55;6.43;;;3.70;99.90;;;;;;5051988;28;20025;-78
2023/01/11 06:30:39;;;;;;;9.65;6.43;;;3.70;99.90;;;;;;5050358;28;20048;-78
2023/01/11 06:33:05;;;;;;;9.27;5.95;;;3.80;99.90;;;;;;5050114;28;21510;-79
2023/01/11 06:35:42;;;;;;;10.82;6.55;;;3.80;99.90;;;;;;5050481;28;20036;-78
2023/01/11 06:38:12;;;;;;;8.85;5.88;;;3.70;99.90;;;;;;5047318;28;20021;-79
2023/01/11 06:40:39;;;;;;;7.53;5.68;;;3.70;99.90;;;;;;5048259;28;20620;-78
2023/01/11 06:43:06;;;;;;;10.43;6.55;;;3.50;99.90;;;;;;5051291;28;20104;-78
2023/01/11 06:45:32;;;;;;;9.38;6.22;;;3.60;99.90;;;;;;5047146;28;20138;-78
2023/01/11 06:47:58;;;;;;;10.27;7.05;;;3.70;99.90;;;;;;5050237;28;20180;-78
2023/01/11 06:50:25;;;;;;;10.95;7.40;;;3.70;99.90;;;;;;5050321;28;20166;-78
2023/01/11 06:52:55;;;;;;;13.25;8.30;;;3.80;99.90;;;;;;5051639;28;20029;-78
2023/01/11 06:55:23;;;;;;;14.70;9.20;;;4.00;99.90;;;;;;5051989;28;20025;-78
2023/01/11 06:57:49;;;;;;;11.50;7.32;;;3.90;99.90;;;;;;5051300;28;20029;-78
2023/01/11 07:00:16;;;;;;;14.23;9.20;;;4.00;99.90;;;;;;5051299;28;20025;-78
2023/01/11 07:02:42;;;;;;;12.02;8.27;;;4.00;99.90;;;;;;5050762;28;20056;-78
2023/01/11 07:05:09;;;;;;;11.60;8.32;;;4.10;99.90;;;;;;5051710;28;20096;-78
2023/01/11 07:07:35;;;;;;;12.13;8.05;;;4.10;99.90;;;;;;5036722;28;20627;-78
2023/01/11 07:10:00;;;;;;;9.68;7.40;;;4.00;99.90;;;;;;5050826;28;20503;-78
2023/01/11 07:12:27;;;;;;;9.35;6.93;;;4.00;99.90;;;;;;5051017;28;20029;-78
2023/01/11 07:14:53;;;;;;;10.00;7.18;;;4.00;99.90;;;;;;5050093;28;20025;-79
2023/01/11 07:17:19;;;;;;;9.32;6.45;;;4.00;99.90;;;;;;5051121;28;20035;-78
2023/01/11 07:19:44;;;;;;;10.88;7.05;;;4.00;99.90;;;;;;5049795;28;20029;-78
2023/01/11 07:22:10;;;;;;;9.18;6.65;;;4.00;99.90;;;;;;5051202;28;20029;-79
2023/01/11 07:24:35;;;;;;;11.63;6.80;;;4.00;99.90;;;;;;5051003;28;20482;-78
2023/01/11 07:27:01;;;;;;;14.02;7.35;;;4.10;99.90;;;;;;5046088;28;20022;-78
2023/01/11 07:29:27;;;;;;;12.15;7.28;;;4.00;99.90;;;;;;5047758;28;20041;-79
2023/01/11 07:31:53;;;;;;;11.30;6.90;;;4.00;99.90;;;;;;5049327;28;20029;-78
2023/01/11 07:34:19;;;;;;;9.35;7.18;;;4.00;99.90;;;;;;5051075;28;20029;-79
2023/01/11 07:36:45;;;;;;;8.90;6.60;;;4.00;99.90;;;;;;5052875;28;20025;-78
2023/01/11 07:39:10;;;;;;;11.52;6.88;;;4.10;99.90;;;;;;5042496;28;20138;-78
2023/01/11 07:44:20;;;;;;;9.38;6.65;;;4.10;99.90;;;;;;5050819;28;20035;-78
2023/01/11 07:46:46;;;;;;;9.73;6.93;;;4.10;99.90;;;;;;5050639;28;20021;-79
2023/01/11 07:49:11;;;;;;;11.07;7.20;;;4.10;99.90;;;;;;5050666;28;20031;-78
2023/01/11 07:51:37;;;;;;;11.15;7.07;;;4.20;99.90;;;;;;5046014;28;20021;-78
2023/01/11 07:54:03;;;;;;;10.48;6.93;;;4.20;99.90;;;;;;5046284;28;20159;-78
2023/01/11 07:56:30;;;;;;;9.52;6.15;;;4.30;99.90;;;;;;5048112;28;20490;-79
2023/01/11 07:58:56;;;;;;;11.20;6.72;;;4.30;99.90;;;;;;5057954;28;20031;-78
2023/01/11 08:01:23;;;;;;;10.63;5.95;;;4.40;99.90;;;;;;5048610;28;20017;-79
2023/01/11 08:03:48;;;;;;;9.32;6.63;;;4.40;99.90;;;;;;5044955;28;20241;-78
2023/01/11 08:06:14;;;;;;;8.75;5.95;;;4.50;99.90;;;;;;5046182;28;20507;-78
2023/01/11 08:08:40;;;;;;;9.32;6.55;;;4.60;99.90;;;;;;5047061;28;20609;-78
2023/01/11 08:16:36;;;;;;;9.88;6.00;;;4.60;99.90;;;;;;5054736;28;20039;-78
2023/01/11 08:19:02;;;;;;;8.32;6.10;;;4.60;99.90;;;;;;5052831;28;20025;-77
2023/01/11 08:21:28;;;;;;;9.38;6.22;;;4.60;99.90;;;;;;5068205;28;20020;-78
2023/01/11 08:23:55;;;;;;;11.50;7.45;;;4.40;99.90;;;;;;5054234;28;20032;-78
2023/01/11 08:26:25;;;;;;;13.80;8.70;;;4.60;99.90;;;;;;5053968;28;20029;-78
2023/01/11 08:28:51;;;;;;;12.60;8.68;;;4.60;99.90;;;;;;5051603;28;20064;-78
2023/01/11 08:31:17;;;;;;;13.15;9.45;;;4.60;99.90;;;;;;5053195;28;20017;-78
2023/01/11 08:33:43;;;;;;;10.65;7.60;;;4.60;99.90;;;;;;5056363;28;20033;-79
2023/01/11 08:36:10;;;;;;;11.52;8.05;;;4.60;99.90;;;;;;5050955;28;20487;-79
2023/01/11 08:38:36;;;;;;;12.00;7.68;;;4.60;99.90;;;;;;5053945;28;20037;-78
2023/01/11 08:41:09;;;;;;;11.15;7.13;;;4.60;99.90;;;;;;5052825;28;20029;-78
2023/01/11 08:43:36;;;;;;;10.55;7.50;;;4.70;99.90;;;;;;5068822;28;20033;-78
2023/01/11 08:46:01;;;;;;;10.15;6.80;;;4.70;99.90;;;;;;5053704;28;20395;-78
2023/01/11 08:48:27;;;;;;;9.93;6.72;;;4.80;99.90;;;;;;5053709;28;20021;-78
2023/01/11 08:50:53;;;;;;;11.73;7.22;;;4.70;99.90;;;;;;5053198;28;20021;-78
2023/01/11 08:53:19;;;;;;;10.93;7.18;;;4.70;99.90;;;;;;5051522;28;20029;-78
2023/01/11 08:55:49;;;;;;;10.55;6.65;;;4.80;99.90;;;;;;5052768;28;20032;-78
2023/01/11 08:58:15;;;;;;;11.75;7.05;;;5.00;99.90;;;;;;5053626;28;20104;-78
2023/01/11 09:00:41;;;;;;;8.70;5.95;;;4.90;99.90;;;;;;5052523;28;20128;-79
2023/01/11 09:03:07;;;;;;;9.52;6.50;;;4.90;99.90;;;;;;5051890;28;20032;-79
2023/01/11 09:05:33;;;;;;;11.60;7.65;;;5.00;99.90;;;;;;5053398;28;20056;-79
2023/01/11 09:07:59;;;;;;;9.27;5.97;;;5.00;99.90;;;;;;5057235;28;20021;-78
2023/01/11 09:10:28;;;;;;;11.27;6.32;;;5.10;99.90;;;;;;5054057;28;20056;-79
2023/01/11 09:12:54;;;;;;;9.82;6.82;;;5.10;99.90;;;;;;5045100;28;20029;-78
2023/01/11 09:15:20;;;;;;;9.77;5.70;;;5.20;99.90;;;;;;5056494;28;20025;-78
2023/01/11 09:17:46;;;;;;;10.20;5.70;;;5.20;99.90;;;;;;5052850;28;20090;-78
2023/01/11 09:20:12;;;;;;;9.73;5.78;;;5.40;99.90;;;;;;5052676;28;20025;-78
2023/01/11 09:22:38;;;;;;;8.02;5.45;;;5.30;99.90;;;;;;5051831;28;20070;-78
2023/01/11 09:25:05;;;;;;;8.20;5.40;;;5.40;99.90;;;;;;5052834;28;20020;-78
2023/01/11 09:27:31;;;;;;;6.63;4.97;;;5.40;99.90;;;;;;5050011;28;20086;-78
2023/01/11 09:29:57;;;;;;;6.05;4.72;;;5.40;99.90;;;;;;5055096;28;20488;-79
2023/01/11 09:32:22;;;;;;;6.00;4.60;;;5.50;99.90;;;;;;5067067;28;20601;-78
2023/01/11 09:34:52;;;;;;;8.63;4.95;;;5.50;99.90;;;;;;5052779;28;20053;-78
2023/01/11 09:37:19;;;;;;;5.95;4.60;;;5.50;99.90;;;;;;5052705;28;20029;-78
2023/01/11 09:39:45;;;;;;;6.03;4.43;;;5.50;99.90;;;;;;5052487;28;20084;-78
2023/01/11 09:42:33;;;;;;;6.78;4.82;;;5.60;99.90;;;;;;5052306;28;20060;-78
2023/01/11 09:45:20;;;;;;;6.80;4.75;;;5.70;99.90;;;;;;5063929;28;20029;-79
2023/01/11 09:47:59;;;;;;;6.28;4.30;;;5.70;99.90;;;;;;5052519;28;20238;-79
2023/01/11 09:50:28;;;;;;;6.45;4.80;;;5.70;99.90;;;;;;5060935;28;20078;-79
2023/01/11 09:53:02;;;;;;;9.55;5.20;;;5.70;99.90;;;;;;5051876;28;20021;-78
2023/01/11 09:55:50;;;;;;;9.20;5.85;;;5.70;99.90;;;;;;5052291;28;20025;-78
2023/01/11 09:58:54;;;;;;;10.60;5.88;;;5.60;99.90;;;;;;5041158;28;20029;-78
2023/01/11 10:01:52;;;;;;;13.15;8.38;;;5.60;99.90;;;;;;5040669;28;20082;-78
2023/01/11 10:04:31;;;;;;;17.50;9.00;;;5.70;99.90;;;;;;4990203;28;20524;-78
2023/01/11 10:07:15;;;;;;;15.27;8.43;;;5.70;99.90;;;;;;4990322;28;20137;-78
2023/01/11 10:09:44;;;;;;;14.63;8.70;;;5.80;99.90;;;;;;4990348;28;20027;-79
2023/01/11 10:12:34;;;;;;;10.80;7.43;;;5.90;99.90;;;;;;4990195;28;20169;-78
2023/01/11 10:15:15;;;;;;;11.27;7.40;;;5.90;99.90;;;;;;4973757;28;20129;-79
2023/01/11 10:18:01;;;;;;;11.03;6.70;;;6.00;99.90;;;;;;4990489;28;20524;-78
2023/01/11 10:20:42;;;;;;;10.95;7.22;;;6.00;99.90;;;;;;4989978;28;20050;-78
2023/01/11 10:23:20;;;;;;;11.68;6.55;;;6.10;99.90;;;;;;4989794;28;20054;-79
2023/01/11 10:25:50;;;;;;;11.57;6.60;;;6.20;99.90;;;;;;4973501;28;20026;-79
2023/01/11 10:28:30;;;;;;;14.10;7.68;;;6.30;99.90;;;;;;4987581;28;20065;-79
2023/01/11 10:42:29;;;;;;;7.75;5.22;;;7.50;99.90;;;;;;5050924;28;20044;-79
2023/01/11 10:45:24;;;;;;;10.68;7.00;;;7.60;99.90;;;;;;5051430;28;20379;-78
2023/01/11 10:48:08;;;;;;;8.40;6.10;;;7.70;99.90;;;;;;5038046;28;20033;-78
2023/01/11 10:50:47;;;;;;;12.95;8.65;;;7.90;99.90;;;;;;5072776;28;20052;-79
2023/01/11 10:53:37;;;;;;;13.13;8.18;;;7.90;99.90;;;;;;5038686;28;20099;-78
2023/01/11 10:56:09;;;;;;;12.02;8.45;;;7.90;99.90;;;;;;5050961;28;20071;-79
2023/01/11 10:58:54;;;;;;;13.07;8.63;;;8.00;99.90;;;;;;5050477;28;20025;-80
2023/01/11 11:01:27;;;;;;;11.82;8.07;;;8.00;99.90;;;;;;5039486;28;20037;-79
2023/01/11 11:03:58;;;;;;;14.45;10.57;;;8.10;99.90;;;;;;5051007;28;20363;-79
2023/01/11 11:06:40;;;;;;;;;;;8.20;99.90;;;;;;5046430;28;20040;-79
2023/01/11 11:09:18;;;;;;;12.23;8.90;;;8.30;99.90;;;;;;5052786;28;19904;-78
2023/01/11 11:11:52;;;;;;;13.80;9.95;;;8.40;99.90;;;;;;5050439;28;20017;-79
2023/01/11 11:15:12;;;;;;;11.75;8.55;;;8.50;99.90;;;;;;5050647;28;20017;-79
2023/01/11 11:17:44;;;;;;;7.95;6.22;;;8.60;99.90;;;;;;4995174;28;20037;-78
2023/01/11 11:20:17;;;;;;;7.40;5.63;;;8.70;99.90;;;;;;5008848;28;20577;-79
2023/01/11 11:22:43;;;;;;;6.32;5.60;;;8.80;99.90;;;;;;5008265;28;20034;-78
2023/01/11 11:25:19;;;;;;;6.55;4.75;;;9.00;99.90;;;;;;5008556;28;20531;-78
2023/01/11 11:27:49;;;;;;;6.63;4.43;;;9.00;99.90;;;;;;4992178;28;20065;-78
2023/01/11 11:30:27;;;;;;;5.70;4.65;;;9.10;99.90;;;;;;5008651;28;20054;-79
2023/01/11 11:33:24;;;;;;;3.97;3.58;;;9.10;99.90;;;;;;5008524;28;20211;-78
2023/01/11 11:36:11;;;;;;;4.75;3.25;;;9.20;99.90;;;;;;5008121;28;20083;-79
2023/01/11 11:38:38;;;;;;;3.55;3.25;;;9.20;99.90;;;;;;5008265;28;20041;-78
2023/01/11 11:41:03;;;;;;;7.28;3.10;;;9.30;99.90;;;;;;4990970;28;20038;-78
2023/01/11 11:43:31;;;;;;;6.78;3.40;;;9.30;99.90;;;;;;5008420;28;20026;-78
2023/01/11 11:46:00;;;;;;;6.35;3.38;;;9.40;99.90;;;;;;5007991;28;20034;-78
2023/01/11 11:48:28;;;;;;;5.45;4.00;;;9.40;99.90;;;;;;5007382;28;20029;-78
2023/01/11 11:51:01;;;;;;;7.65;4.53;;;9.40;99.90;;;;;;5010663;28;20655;-78
2023/01/11 11:53:35;;;;;;;7.63;4.20;;;9.50;99.90;;;;;;5035484;28;20095;-78
2023/01/11 11:56:20;;;;;;;10.27;4.68;;;9.50;99.90;;;;;;5047751;28;20037;-78
2023/01/11 11:58:46;;;;;;;6.55;3.80;;;9.60;99.90;;;;;;5050458;28;20025;-79
2023/01/11 12:01:34;;;;;;;4.90;3.65;;;9.60;99.90;;;;;;5048607;28;20468;-78
2023/01/11 12:04:02;;;;;;;7.15;3.97;;;9.60;99.90;;;;;;5036807;28;20033;-78
2023/01/11 12:06:29;;;;;;;6.43;3.95;;;9.70;99.90;;;;;;5048483;28;20033;-78
2023/01/11 12:09:00;;;;;;;6.32;3.65;;;9.70;99.90;;;;;;5051516;28;20518;-78
2023/01/11 12:11:33;;;;;;;8.17;3.90;;;9.80;99.90;;;;;;5058407;28;20024;-78
2023/01/11 12:14:02;;;;;;;5.35;3.70;;;9.90;99.90;;;;;;5050087;28;20074;-78
2023/01/11 12:16:35;;;;;;;7.50;3.95;;;9.90;99.90;;;;;;5049556;28;20064;-78
2023/01/11 12:19:01;;;;;;;6.72;3.33;;;10.00;99.90;;;;;;5050210;28;20063;-78
2023/01/11 12:21:30;;;;;;;8.45;3.30;;;10.00;99.90;;;;;;5050165;28;20079;-79
2023/01/11 12:24:15;;;;;;;9.25;3.00;;;10.10;99.90;;;;;;5065496;28;20029;-78
2023/01/11 12:27:26;;;;;;;10.48;3.70;;;10.20;99.90;;;;;;5049705;28;20570;-79
2023/01/11 12:30:25;;;;;;;9.30;2.83;;;10.20;99.90;;;;;;4988267;28;20045;-78
2023/01/11 12:33:12;;;;;;;11.18;3.08;;;10.30;99.90;;;;;;4993595;28;20280;-78
2023/01/11 12:35:55;;;;;;;9.43;3.42;;;10.30;99.90;;;;;;4994909;28;20030;-78
2023/01/11 12:38:32;;;;;;;7.63;3.22;;;10.40;99.90;;;;;;4987917;28;20254;-78
2023/01/11 12:41:03;;;;;;;8.18;3.15;;;10.40;99.90;;;;;;5002391;28;20034;-78
2023/01/11 12:43:46;;;;;;;12.45;3.65;;;10.40;99.90;;;;;;4987886;28;20492;-77
2023/01/11 12:46:33;;;;;;;9.07;3.35;;;10.40;99.90;;;;;;4988842;28;20042;-77
2023/01/11 12:49:31;;;;;;;9.25;3.92;;;10.50;99.90;;;;;;5000225;28;20101;-77
2023/01/11 12:52:15;;;;;;;12.38;3.67;;;10.50;99.90;;;;;;5004511;28;20085;-77
2023/01/11 12:55:02;;;;;;;13.50;4.72;;;10.50;99.90;;;;;;5010700;28;20045;-77
2023/01/11 12:57:59;;;;;;;15.15;6.40;;;10.50;99.90;;;;;;4978364;28;20140;-77
2023/01/11 13:00:48;;;;;;;15.98;6.70;;;10.50;99.90;;;;;;4986069;28;20033;-77
2023/01/11 13:03:32;;;;;;;24.02;11.10;;;10.60;99.90;;;;;;4991621;28;20297;-77
2023/01/11 13:06:07;;;;;;;22.05;12.18;;;10.60;99.90;;;;;;5036009;28;20041;-77
2023/01/11 13:08:43;;;;;;;18.17;10.10;;;10.60;99.90;;;;;;5033194;28;20036;-77
2023/01/11 13:11:33;;;;;;;14.18;8.10;;;10.60;99.90;;;;;;5056689;28;20025;-77
2023/01/11 13:14:19;;;;;;;16.40;8.80;;;10.60;99.90;;;;;;5053093;28;20506;-77
2023/01/11 13:17:20;;;;;;;13.75;7.88;;;10.60;99.90;;;;;;5059414;28;20041;-78
2023/01/11 13:20:22;;;;;;;13.93;7.80;;;10.50;99.90;;;;;;5054120;28;20036;-79
2023/01/11 13:23:38;;;;;;;10.93;6.57;;;10.30;99.90;;;;;;4990458;28;20065;-78
2023/01/11 13:26:24;;;;;;;12.07;5.93;;;10.30;99.90;;;;;;4990167;28;20066;-78
2023/01/11 13:29:01;;;;;;;14.90;8.13;;;10.40;99.90;;;;;;4991233;28;20042;-78
2023/01/11 13:31:28;;;;;;;14.85;8.55;;;10.50;99.90;;;;;;4990359;28;20033;-78
2023/01/11 13:34:00;;;;;;;17.65;8.20;;;10.50;99.90;;;;;;4974872;28;20042;-78
2023/01/11 13:36:32;;;;;;;12.40;7.38;;;10.50;99.90;;;;;;4990420;28;20109;-78
2023/01/11 13:39:20;;;;;;;11.55;7.43;;;10.50;99.90;;;;;;4967342;28;20085;-78
2023/01/11 13:41:59;;;;;;;15.15;7.13;;;10.50;99.90;;;;;;4976936;28;20031;-78
2023/01/11 13:44:32;;;;;;;15.10;6.85;;;10.60;99.90;;;;;;4989874;28;20034;-78
2023/01/11 13:47:24;;;;;;;11.23;6.78;;;10.60;99.90;;;;;;4990672;28;20540;-78
2023/01/11 13:50:16;;;;;;;11.55;5.18;;;10.60;99.90;;;;;;4993117;28;20145;-78
2023/01/11 13:53:04;;;;;;;8.48;5.22;;;10.70;99.90;;;;;;4993667;28;20043;-78
2023/01/11 13:55:44;;;;;;;9.52;5.15;;;10.70;99.90;;;;;;4994994;28;20029;-78